createdAt,value
2022-10-13T00:00:49.877Z,4.80
2022-10-13T00:03:53.033Z,4.67
2022-10-13T00:06:55.821Z,4.90
2022-10-13T00:09:58.592Z,4.63
2022-10-13T00:13:02.753Z,4.80
2022-10-13T00:16:05.914Z,5.00
2022-10-13T00:19:12.885Z,5.30
2022-10-13T00:22:17.757Z,5.25
2022-10-13T00:25:20.616Z,5.20
2022-10-13T00:28:25.089Z,4.82
2022-10-13T00:31:30.180Z,5.30
2022-10-13T00:34:32.856Z,5.10
2022-10-13T00:37:35.473Z,4.78
2022-10-13T00:40:45.351Z,4.97
2022-10-13T00:43:53.713Z,4.78
2022-10-13T00:46:56.258Z,5.23
2022-10-13T00:49:59.318Z,5.53
2022-10-13T00:53:02.937Z,5.07
2022-10-13T00:56:09.000Z,5.15
2022-10-13T00:59:22.555Z,5.13
2022-10-13T01:02:28.868Z,5.03
2022-10-13T01:05:32.152Z,5.00
2022-10-13T01:08:35.609Z,5.18
2022-10-13T01:11:55.808Z,5.38
2022-10-13T01:15:09.358Z,4.63
2022-10-13T01:18:22.361Z,4.97
2022-10-13T01:21:34.395Z,5.03
2022-10-13T01:24:50.838Z,5.13
2022-10-13T01:28:13.953Z,5.53
2022-10-13T01:31:26.934Z,5.07
2022-10-13T01:34:37.089Z,4.70
2022-10-13T01:37:48.165Z,4.93
2022-10-13T01:41:01.550Z,5.22
2022-10-13T01:44:12.841Z,5.47
2022-10-13T01:47:19.852Z,5.28
2022-10-13T01:50:24.089Z,5.30
2022-10-13T01:53:28.473Z,5.27
2022-10-13T01:56:31.055Z,5.13
2022-10-13T01:59:38.587Z,5.13
2022-10-13T02:02:48.757Z,5.22
2022-10-13T02:06:00.508Z,5.07
2022-10-13T02:09:10.852Z,4.57
2022-10-13T02:12:20.660Z,4.68
2022-10-13T02:15:28.674Z,4.50
2022-10-13T02:18:35.521Z,5.22
2022-10-13T02:21:38.864Z,5.17
2022-10-13T02:24:41.833Z,4.80
2022-10-13T02:27:44.584Z,4.78
2022-10-13T02:30:48.302Z,4.97
2022-10-13T02:33:52.197Z,4.95
2022-10-13T02:36:54.768Z,5.00
2022-10-13T02:39:57.321Z,4.50
2022-10-13T02:43:00.115Z,4.72
2022-10-13T02:46:02.784Z,4.53
2022-10-13T02:49:06.664Z,4.97
2022-10-13T02:52:09.362Z,4.90
2022-10-13T02:55:11.948Z,5.00
2022-10-13T02:58:14.668Z,5.00
2022-10-13T03:01:17.446Z,5.10
2022-10-13T03:04:21.509Z,5.00
2022-10-13T03:07:24.133Z,5.60
2022-10-13T03:10:27.146Z,5.65
2022-10-13T03:13:29.774Z,6.10
2022-10-13T03:16:32.350Z,5.40
2022-10-13T03:19:36.415Z,6.68
2022-10-13T03:22:38.983Z,6.15
2022-10-13T03:25:41.545Z,6.07
2022-10-13T03:28:44.389Z,6.55
2022-10-13T03:31:47.010Z,6.23
2022-10-13T03:34:51.459Z,6.80
2022-10-13T03:37:55.150Z,7.38
2022-10-13T03:40:57.836Z,6.15
2022-10-13T03:44:00.416Z,6.28
2022-10-13T03:47:02.994Z,6.70
2022-10-13T03:50:08.227Z,6.93
2022-10-13T03:53:11.469Z,6.63
2022-10-13T03:56:17.492Z,6.70
2022-10-13T03:59:20.070Z,6.45
2022-10-13T04:02:22.871Z,7.93
2022-10-13T04:05:26.947Z,11.88
2022-10-13T04:08:29.614Z,12.40
2022-10-13T04:11:32.185Z,9.75
2022-10-13T04:14:35.137Z,8.98
2022-10-13T04:17:37.849Z,6.80
2022-10-13T04:20:41.777Z,7.07
2022-10-13T04:23:44.500Z,6.97
2022-10-13T04:26:47.370Z,7.10
2022-10-13T04:29:50.059Z,6.38
2022-10-13T04:32:52.725Z,7.20
2022-10-13T04:35:56.797Z,6.82
2022-10-13T04:38:59.477Z,6.90
2022-10-13T04:42:02.184Z,6.72
2022-10-13T04:45:05.173Z,6.32
2022-10-13T04:48:07.807Z,5.70
2022-10-13T04:51:14.165Z,5.90
2022-10-13T04:54:16.751Z,6.00
2022-10-13T04:57:19.336Z,6.18
2022-10-13T05:00:22.157Z,6.43
2022-10-13T05:03:25.989Z,6.73
2022-10-13T05:06:32.055Z,5.82
2022-10-13T05:09:34.635Z,5.65
2022-10-13T05:12:37.801Z,5.70
2022-10-13T05:15:40.466Z,6.25
2022-10-13T05:18:43.724Z,6.33
2022-10-13T05:21:47.616Z,6.32
2022-10-13T05:24:50.280Z,6.10
2022-10-13T05:27:52.996Z,5.88
2022-10-13T05:30:55.572Z,6.13
2022-10-13T05:33:58.735Z,5.95
2022-10-13T05:37:02.953Z,6.70
2022-10-13T05:40:07.226Z,5.97
2022-10-13T05:43:09.820Z,6.03
2022-10-13T05:46:12.526Z,6.00
2022-10-13T05:49:15.166Z,5.88
2022-10-13T05:52:20.845Z,5.82
2022-10-13T05:55:23.885Z,6.25
2022-10-13T05:58:26.562Z,6.30
2022-10-13T06:01:32.753Z,6.37
2022-10-13T06:04:39.471Z,6.68
2022-10-13T06:07:44.759Z,6.07
2022-10-13T06:10:47.453Z,6.35
2022-10-13T06:13:50.029Z,6.50
2022-10-13T06:16:52.788Z,6.07
2022-10-13T06:19:55.345Z,6.38
2022-10-13T06:22:59.301Z,6.32
2022-10-13T06:26:01.931Z,6.63
2022-10-13T06:29:05.009Z,6.45
2022-10-13T06:32:07.775Z,7.00
2022-10-13T06:35:10.921Z,6.88
2022-10-13T06:38:15.091Z,7.05
2022-10-13T06:41:17.794Z,6.90
2022-10-13T06:44:20.569Z,6.57
2022-10-13T06:47:23.172Z,6.80
2022-10-13T06:50:26.210Z,6.78
2022-10-13T06:53:30.289Z,6.97
2022-10-13T06:56:33.014Z,8.05
2022-10-13T06:59:35.845Z,7.88
2022-10-13T07:02:38.557Z,8.73
2022-10-13T07:05:41.104Z,7.30
2022-10-13T07:08:45.414Z,7.72
2022-10-13T07:11:49.461Z,7.85
2022-10-13T07:14:52.175Z,8.70
2022-10-13T07:17:55.524Z,8.30
2022-10-13T07:20:58.859Z,8.10
2022-10-13T07:24:04.417Z,8.15
2022-10-13T07:27:08.032Z,8.13
2022-10-13T07:30:11.689Z,7.55
2022-10-13T07:33:14.422Z,7.13
2022-10-13T07:36:17.122Z,7.30
2022-10-13T07:39:21.196Z,8.75
2022-10-13T07:42:23.764Z,8.98
2022-10-13T07:45:26.863Z,8.43
2022-10-13T07:48:29.744Z,8.13
2022-10-13T07:51:32.278Z,8.75
2022-10-13T07:54:36.222Z,7.40
2022-10-13T07:57:38.870Z,7.88
2022-10-13T08:00:41.646Z,6.95
2022-10-13T08:03:48.954Z,7.70
2022-10-13T08:06:53.104Z,8.43
2022-10-13T08:09:57.152Z,7.68
2022-10-13T08:12:59.712Z,8.48
2022-10-13T08:16:03.227Z,8.35
2022-10-13T08:19:07.050Z,8.00
2022-10-13T08:22:10.415Z,8.43
2022-10-13T08:25:14.826Z,8.20
2022-10-13T08:28:19.966Z,7.20
2022-10-13T08:31:22.875Z,7.78
2022-10-13T08:34:26.646Z,7.23
2022-10-13T08:37:29.312Z,7.68
2022-10-13T08:40:33.286Z,8.55
2022-10-13T08:43:41.773Z,7.70
2022-10-13T08:47:05.113Z,7.57
2022-10-13T08:50:14.453Z,7.83
2022-10-13T08:53:24.280Z,7.63
2022-10-13T08:56:31.701Z,7.28
2022-10-13T08:59:34.304Z,8.02
2022-10-13T09:02:39.137Z,7.88
2022-10-13T09:05:48.014Z,7.00
2022-10-13T09:08:54.343Z,7.20
2022-10-13T09:12:00.239Z,7.45
2022-10-13T09:15:05.326Z,7.43
2022-10-13T09:18:13.632Z,7.53
2022-10-13T09:21:20.477Z,7.87
2022-10-13T09:24:24.811Z,7.50
2022-10-13T09:27:28.820Z,7.95
2022-10-13T09:30:35.591Z,7.63
2022-10-13T09:33:38.522Z,7.40
2022-10-13T09:36:55.602Z,7.70
2022-10-13T09:40:03.221Z,9.63
2022-10-13T09:43:21.848Z,8.10
2022-10-13T09:46:27.276Z,7.55
2022-10-13T09:49:35.725Z,7.20
2022-10-13T09:52:38.380Z,7.95
2022-10-13T09:55:41.058Z,7.75
2022-10-13T09:58:49.678Z,9.52
2022-10-13T10:01:54.199Z,8.20
2022-10-13T10:05:01.258Z,7.50
2022-10-13T10:08:12.412Z,7.10
2022-10-13T10:11:18.892Z,7.60
2022-10-13T10:14:27.280Z,8.45
2022-10-13T10:17:36.130Z,7.68
2022-10-13T10:20:47.741Z,7.40
2022-10-13T10:23:54.282Z,7.40
2022-10-13T10:27:00.713Z,9.02
2022-10-13T10:30:07.096Z,7.97
2022-10-13T10:33:14.311Z,8.10
2022-10-13T10:36:22.842Z,8.47
2022-10-13T10:39:37.628Z,8.27
2022-10-13T10:42:53.940Z,8.10
2022-10-13T10:46:00.900Z,7.93
2022-10-13T10:49:12.014Z,8.13
2022-10-13T10:52:24.494Z,9.57
2022-10-13T10:55:33.868Z,7.18
2022-10-13T10:58:44.668Z,8.27
2022-10-13T11:01:57.403Z,7.43
2022-10-13T11:05:05.311Z,7.97
2022-10-13T11:08:27.949Z,8.00
2022-10-13T11:11:37.746Z,8.00
2022-10-13T11:14:40.693Z,8.90
2022-10-13T11:17:44.777Z,8.85
2022-10-13T11:20:59.072Z,8.05
2022-10-13T11:24:02.308Z,6.97
2022-10-13T11:27:20.427Z,7.72
2022-10-13T11:30:50.424Z,7.07
2022-10-13T11:34:00.147Z,6.50
2022-10-13T11:37:03.613Z,6.90
2022-10-13T11:40:21.213Z,8.27
2022-10-13T11:43:43.381Z,7.15
2022-10-13T11:47:01.209Z,9.32
2022-10-13T11:50:15.705Z,7.35
2022-10-13T11:53:20.717Z,6.88
2022-10-13T11:56:33.895Z,7.60
2022-10-13T11:59:37.943Z,7.20
2022-10-13T12:02:49.578Z,6.50
2022-10-13T12:05:54.709Z,6.13
2022-10-13T12:08:57.304Z,5.60
2022-10-13T12:12:03.602Z,5.50
2022-10-13T12:15:29.042Z,4.10
2022-10-13T12:18:34.584Z,4.40
2022-10-13T12:21:50.235Z,4.72
2022-10-13T12:25:01.421Z,4.60
2022-10-13T12:28:04.284Z,4.37
2022-10-13T12:31:06.909Z,4.78
2022-10-13T12:34:20.127Z,4.32
2022-10-13T12:37:30.670Z,4.70
2022-10-13T12:40:34.706Z,4.88
2022-10-13T12:43:37.486Z,4.33
2022-10-13T12:46:42.328Z,5.00
2022-10-13T12:49:45.042Z,5.07
2022-10-13T12:52:49.289Z,4.30
2022-10-13T12:55:58.649Z,4.15
2022-10-13T12:59:01.669Z,4.33
2022-10-13T13:02:20.781Z,4.93
2022-10-13T13:05:31.428Z,4.82
2022-10-13T13:08:35.502Z,4.90
2022-10-13T13:11:39.722Z,4.63
2022-10-13T13:14:43.494Z,4.70
2022-10-13T13:17:57.653Z,5.20
2022-10-13T13:21:02.116Z,4.70
2022-10-13T13:24:16.204Z,4.07
2022-10-13T13:27:36.545Z,5.18
2022-10-13T13:30:39.130Z,4.60
2022-10-13T13:33:42.166Z,4.18
2022-10-13T13:36:45.005Z,4.78
2022-10-13T13:39:48.910Z,4.40
2022-10-13T13:42:51.740Z,4.10
2022-10-13T13:45:54.347Z,4.77
2022-10-13T13:48:57.050Z,5.47
2022-10-13T13:51:59.780Z,5.38
2022-10-13T13:55:03.792Z,5.45
2022-10-13T13:58:06.432Z,5.40
2022-10-13T14:01:09.118Z,4.67
2022-10-13T14:04:11.865Z,5.18
2022-10-13T14:07:14.985Z,4.90
2022-10-13T14:10:18.962Z,4.15
2022-10-13T14:13:21.721Z,4.50
2022-10-13T14:16:24.562Z,4.97
2022-10-13T14:19:27.456Z,4.57
2022-10-13T14:22:30.029Z,4.78
2022-10-13T14:25:34.526Z,5.30
2022-10-13T14:28:37.144Z,4.70
2022-10-13T14:31:39.759Z,4.90
2022-10-13T14:34:42.584Z,4.63
2022-10-13T14:37:45.169Z,4.57
2022-10-13T14:40:49.109Z,5.57
2022-10-13T14:43:54.329Z,5.05
2022-10-13T14:46:57.039Z,4.53
2022-10-13T14:50:01.276Z,4.53
2022-10-13T14:53:03.868Z,4.15
2022-10-13T14:56:18.264Z,4.20
2022-10-13T14:59:20.983Z,4.75
2022-10-13T15:02:23.561Z,5.07
2022-10-13T15:05:26.256Z,4.55
2022-10-13T15:08:28.873Z,4.53
2022-10-13T15:11:33.242Z,4.25
2022-10-13T15:14:36.028Z,5.22
2022-10-13T15:17:38.648Z,4.20
2022-10-13T15:20:46.496Z,4.13
2022-10-13T15:23:49.639Z,3.92
2022-10-13T15:26:53.727Z,4.38
2022-10-13T15:29:56.295Z,3.88
2022-10-13T15:32:59.051Z,4.20
2022-10-13T15:36:02.065Z,4.10
2022-10-13T15:39:04.798Z,4.80
2022-10-13T15:42:08.886Z,4.43
2022-10-13T15:45:12.158Z,4.00
2022-10-13T15:48:14.953Z,4.27
2022-10-13T15:51:20.374Z,4.70
2022-10-13T15:54:23.472Z,4.65
2022-10-13T15:57:27.958Z,4.75
2022-10-13T16:00:30.587Z,5.18
2022-10-13T16:03:33.186Z,4.10
2022-10-13T16:06:37.376Z,4.90
2022-10-13T16:09:39.936Z,4.70
2022-10-13T16:12:49.370Z,4.60
2022-10-13T16:15:58.537Z,4.95
2022-10-13T16:19:01.442Z,4.73
2022-10-13T16:22:04.162Z,5.07
2022-10-13T16:25:07.690Z,5.00
2022-10-13T16:28:11.654Z,5.85
2022-10-13T16:31:16.913Z,5.63
2022-10-13T16:34:19.885Z,5.38
2022-10-13T16:37:22.799Z,5.47
2022-10-13T16:40:25.854Z,5.75
2022-10-13T16:43:30.714Z,5.90
2022-10-13T16:46:34.007Z,5.80
2022-10-13T16:49:37.203Z,6.07
2022-10-13T16:52:39.967Z,5.40
2022-10-13T16:55:42.953Z,5.60
2022-10-13T16:58:47.276Z,5.47
2022-10-13T17:01:49.889Z,5.93
2022-10-13T17:04:52.701Z,5.72
2022-10-13T17:07:55.262Z,6.17
2022-10-13T17:10:58.552Z,6.57
2022-10-13T17:14:02.780Z,7.00
2022-10-13T17:17:05.736Z,6.28
2022-10-13T17:20:08.908Z,6.90
2022-10-13T17:23:11.624Z,8.60
2022-10-13T17:26:15.066Z,10.13
2022-10-13T17:29:19.129Z,10.50
2022-10-13T17:32:21.888Z,10.80
2022-10-13T17:35:24.639Z,10.43
2022-10-13T17:38:27.280Z,9.30
2022-10-13T17:41:30.032Z,8.03
2022-10-13T17:44:34.115Z,7.57
2022-10-13T17:47:36.828Z,7.63
2022-10-13T17:50:39.388Z,8.50
2022-10-13T17:53:43.421Z,8.43
2022-10-13T17:56:46.706Z,8.53
2022-10-13T17:59:50.726Z,8.75
2022-10-13T18:02:53.475Z,8.50
2022-10-13T18:05:56.086Z,7.95
2022-10-13T18:08:58.808Z,7.73
2022-10-13T18:12:01.414Z,7.70
2022-10-13T18:15:06.442Z,6.70
2022-10-13T18:18:11.034Z,6.75
2022-10-13T18:21:15.766Z,6.80
2022-10-13T18:24:18.565Z,7.80
2022-10-13T18:27:21.923Z,8.10
2022-10-13T18:30:26.410Z,7.18
2022-10-13T18:33:29.629Z,7.53
2022-10-13T18:36:35.493Z,6.88
2022-10-13T18:39:38.775Z,6.87
2022-10-13T18:42:45.964Z,6.67
2022-10-13T18:45:51.393Z,7.00
2022-10-13T18:48:54.277Z,6.45
2022-10-13T18:51:57.469Z,6.65
2022-10-13T18:55:00.284Z,6.90
2022-10-13T18:58:03.609Z,7.00
2022-10-13T19:01:09.617Z,7.45
2022-10-13T19:04:16.824Z,7.05
2022-10-13T19:07:20.265Z,6.68
2022-10-13T19:10:25.339Z,6.33
2022-10-13T19:13:28.771Z,6.70
2022-10-13T19:16:38.721Z,6.13
2022-10-13T19:19:41.608Z,6.55
2022-10-13T19:22:44.628Z,7.10
2022-10-13T19:25:50.441Z,7.53
2022-10-13T19:28:59.147Z,7.13
2022-10-13T19:32:09.925Z,7.38
2022-10-13T19:35:13.696Z,7.63
2022-10-13T19:38:19.922Z,7.45
2022-10-13T19:41:23.432Z,7.67
2022-10-13T19:44:26.243Z,7.50
2022-10-13T19:47:30.478Z,7.28
2022-10-13T19:50:34.743Z,6.95
2022-10-13T19:53:38.816Z,7.20
2022-10-13T19:56:42.101Z,7.63
2022-10-13T19:59:47.699Z,7.20
2022-10-13T20:02:52.986Z,6.60
2022-10-13T20:05:56.206Z,6.15
2022-10-13T20:08:59.657Z,6.05
2022-10-13T20:12:02.830Z,6.13
2022-10-13T20:15:08.860Z,5.77
2022-10-13T20:18:13.742Z,5.85
2022-10-13T20:21:17.948Z,5.80
2022-10-13T20:24:21.878Z,5.22
2022-10-13T20:27:24.732Z,6.03
2022-10-13T20:30:27.750Z,5.90
2022-10-13T20:33:33.395Z,5.47
2022-10-13T20:36:38.768Z,5.68
2022-10-13T20:39:42.694Z,6.18
2022-10-13T20:42:50.891Z,5.70
2022-10-13T20:46:00.536Z,5.60
2022-10-13T20:49:13.449Z,5.63
2022-10-13T20:52:20.583Z,5.67
2022-10-13T20:55:23.355Z,5.70
2022-10-13T20:58:27.108Z,6.10
2022-10-13T21:01:30.410Z,6.20
2022-10-13T21:04:35.189Z,5.90
2022-10-13T21:07:37.908Z,5.60
2022-10-13T21:10:40.827Z,5.68
2022-10-13T21:13:49.658Z,5.70
2022-10-13T21:16:52.477Z,5.22
2022-10-13T21:19:56.461Z,5.73
2022-10-13T21:23:00.431Z,5.60
2022-10-13T21:26:03.985Z,5.47
2022-10-13T21:29:07.054Z,5.75
2022-10-13T21:32:09.777Z,6.05
2022-10-13T21:35:15.653Z,5.60
2022-10-13T21:38:18.636Z,5.50
2022-10-13T21:41:22.495Z,6.00
2022-10-13T21:44:27.476Z,5.70
2022-10-13T21:47:31.134Z,5.70
2022-10-13T21:50:35.484Z,6.30
2022-10-13T21:53:38.521Z,6.00
2022-10-13T21:56:42.583Z,6.15
2022-10-13T21:59:51.514Z,6.50
2022-10-13T22:02:54.311Z,6.47
2022-10-13T22:05:58.612Z,6.87
2022-10-13T22:09:06.455Z,7.53
2022-10-13T22:12:09.321Z,6.88
2022-10-13T22:15:12.431Z,6.95
2022-10-13T22:18:15.727Z,6.78
2022-10-13T22:21:24.779Z,6.80
2022-10-13T22:24:28.033Z,6.73
2022-10-13T22:27:31.030Z,6.80
2022-10-13T22:30:37.531Z,6.70
2022-10-13T22:33:44.953Z,6.57
2022-10-13T22:36:52.659Z,6.95
2022-10-13T22:39:55.210Z,6.13
2022-10-13T22:42:58.139Z,6.82
2022-10-13T22:46:01.880Z,6.90
2022-10-13T22:49:05.435Z,6.63
2022-10-13T22:52:09.365Z,6.78
2022-10-13T22:55:12.606Z,6.43
2022-10-13T22:58:18.319Z,6.53
2022-10-13T23:01:22.167Z,6.80
2022-10-13T23:04:24.878Z,7.00
2022-10-13T23:07:29.872Z,6.60
2022-10-13T23:10:32.625Z,6.57
2022-10-13T23:13:35.527Z,7.65
2022-10-13T23:16:38.289Z,7.15
2022-10-13T23:19:41.086Z,7.60
2022-10-13T23:22:46.877Z,7.60
2022-10-13T23:25:49.746Z,7.40
2022-10-13T23:28:52.819Z,8.00
2022-10-13T23:31:55.675Z,8.43
2022-10-13T23:34:59.865Z,7.93
2022-10-13T23:38:04.103Z,8.40
2022-10-13T23:41:11.566Z,8.53
2022-10-13T23:44:14.506Z,8.68
2022-10-13T23:47:17.137Z,7.93
2022-10-13T23:50:19.886Z,8.02
2022-10-13T23:53:23.886Z,8.33
2022-10-13T23:56:26.992Z,8.30
2022-10-13T23:59:29.860Z,8.35
